Aeroporto :
LOGIN :

Iscrizione | Disclaimer

   EN    FR    IT 

 










Sommario :    VFR   VFR Marginale   IFR   IFR Intensivo   IFR Molto Intensivo
Visibilità : 
Base nubi : 
>= 8 km
>= 3000ft
5 / 8 km
1000 / 3000 ft
1500m / 5 km
500 / 1000 ft
800 / 1500m
200 / 500 ft
< 800m
< 200 ft
Simboli :   Temporali  Nebbia  Neve Forte  Precipitazioni Forti  Vento > 20 kt
SIGMETs :   Varie  Temporali  Ghiacco  Turbolenza  Onda orograficha  Ceneri Vulcaniche






- Altitudine del aeroporto : 607 ft
- Codice IATA : BCM


LRBC - Bacău

ULTIMO METAR :
  • 290600Z 33003KT 9999 FEW010 SCT035 16/16 Q1010

METARs OBSOLETI :
  • 290530Z VRB02KT 9999 SCT010 OVC016 16/16 Q1010
  • 290500Z 01004KT 9999 -RA OVC009 16/15 Q1010
  • 290430Z AUTO 00000KT 9999 BKN009/// OVC085/// 15/15 Q1010
  • 290400Z AUTO VRB02KT 9999 FEW007/// BKN085/// OVC100/// 15/15 Q1010
  • 290330Z AUTO 27005KT 250V310 9999 FEW008/// BKN010/// OVC023/// 15/15 Q1010

TAF TAF LRBC
Valido dal 29 a 06 ore il 29 a 15 ore UTC


290500Z 2906/2915 34008KT 9999 -RA BKN010 BKN040
TEMPO 2906/2908 5000 -RA BR BKN005 BKN030
TEMPO 2908/2912 5000 SHRA BKN010 SCT030CB BKN040
BECMG 2912/2914 SCT015 SCT040



MetMap, La meteo Aeronautica in un colpo d'occhio ! - Copyright ORBIFLY Dicembre 2007 - Disclaimer

ORBIFLY MET'MAP TEAM :

Programmazione e sviluppo : Alexandra Zaïnal
Concezione : Baudouin d'Aumeries
Aiuto per la programmazione : Marc-Olivier Méhu
Supporto tecnico e logistico : Manuel Goepfert
Aiuto per la traduzione : Arnaldo La Scala

Contatto : metmap@orbifly.com




FONTI E CREDITI :

   NOAA